sensor_id;sensor_type;location;lat;lon;timestamp;temperature;humidity
56428;DHT22;42331;53.578;9.760;2022-07-29T00:00:18;13.10;99.90
56428;DHT22;42331;53.578;9.760;2022-07-29T00:02:49;13.00;99.90
56428;DHT22;42331;53.578;9.760;2022-07-29T00:05:20;13.00;99.90
56428;DHT22;42331;53.578;9.760;2022-07-29T00:07:51;12.90;99.90
56428;DHT22;42331;53.578;9.760;2022-07-29T00:10:21;12.90;99.90
56428;DHT22;42331;53.578;9.760;2022-07-29T00:12:52;12.80;99.90
56428;DHT22;42331;53.578;9.760;2022-07-29T00:15:23;12.80;99.90
56428;DHT22;42331;53.578;9.760;2022-07-29T00:17:54;12.80;99.90
56428;DHT22;42331;53.578;9.760;2022-07-29T00:20:25;12.70;99.90
56428;DHT22;42331;53.578;9.760;2022-07-29T00:22:55;12.70;99.90
56428;DHT22;42331;53.578;9.760;2022-07-29T00:25:26;12.70;99.90
56428;DHT22;42331;53.578;9.760;2022-07-29T00:27:57;12.60;99.90
56428;DHT22;42331;53.578;9.760;2022-07-29T00:30:28;12.70;99.90
56428;DHT22;42331;53.578;9.760;2022-07-29T00:32:59;12.60;99.90
56428;DHT22;42331;53.578;9.760;2022-07-29T00:35:29;12.60;99.90
56428;DHT22;42331;53.578;9.760;2022-07-29T00:38:17;12.60;99.90
56428;DHT22;42331;53.578;9.760;2022-07-29T00:40:48;12.60;99.90
56428;DHT22;42331;53.578;9.760;2022-07-29T00:43:19;12.60;99.90
56428;DHT22;42331;53.578;9.760;2022-07-29T00:45:50;12.50;99.90
56428;DHT22;42331;53.578;9.760;2022-07-29T00:48:21;12.50;99.90
56428;DHT22;42331;53.578;9.760;2022-07-29T00:50:51;12.50;99.90
56428;DHT22;42331;53.578;9.760;2022-07-29T00:53:22;12.50;99.90
56428;DHT22;42331;53.578;9.760;2022-07-29T00:55:54;12.50;99.90
56428;DHT22;42331;53.578;9.760;2022-07-29T00:58:26;12.50;99.90
56428;DHT22;42331;53.578;9.760;2022-07-29T01:00:58;12.50;99.90
56428;DHT22;42331;53.578;9.760;2022-07-29T01:03:29;12.50;99.90
56428;DHT22;42331;53.578;9.760;2022-07-29T01:06:00;12.50;99.90
56428;DHT22;42331;53.578;9.760;2022-07-29T01:08:31;12.50;99.90
56428;DHT22;42331;53.578;9.760;2022-07-29T01:11:03;12.40;99.90
56428;DHT22;42331;53.578;9.760;2022-07-29T01:13:34;12.50;99.90
56428;DHT22;42331;53.578;9.760;2022-07-29T01:16:15;12.40;99.90
56428;DHT22;42331;53.578;9.760;2022-07-29T01:18:52;12.50;99.90
56428;DHT22;42331;53.578;9.760;2022-07-29T01:21:51;12.50;99.90
56428;DHT22;42331;53.578;9.760;2022-07-29T01:29:46;12.40;99.90
56428;DHT22;42331;53.578;9.760;2022-07-29T01:32:23;12.40;99.90
56428;DHT22;42331;53.578;9.760;2022-07-29T01:43:16;12.40;99.90
56428;DHT22;42331;53.578;9.760;2022-07-29T01:45:59;12.40;99.90
56428;DHT22;42331;53.578;9.760;2022-07-29T01:48:42;12.50;99.90
56428;DHT22;42331;53.578;9.760;2022-07-29T01:51:32;12.40;99.90
56428;DHT22;42331;53.578;9.760;2022-07-29T01:54:22;12.40;99.90
56428;DHT22;42331;53.578;9.760;2022-07-29T01:56:56;12.40;99.90
56428;DHT22;42331;53.578;9.760;2022-07-29T01:59:29;12.40;99.90
56428;DHT22;42331;53.578;9.760;2022-07-29T02:02:01;12.40;99.90
56428;DHT22;42331;53.578;9.760;2022-07-29T02:04:33;12.40;99.90
56428;DHT22;42331;53.578;9.760;2022-07-29T02:07:07;12.50;99.90
56428;DHT22;42331;53.578;9.760;2022-07-29T02:09:40;12.40;99.90
56428;DHT22;42331;53.578;9.760;2022-07-29T02:12:12;12.40;99.90
56428;DHT22;42331;53.578;9.760;2022-07-29T02:14:47;12.50;99.90
56428;DHT22;42331;53.578;9.760;2022-07-29T02:17:33;12.40;99.90
56428;DHT22;42331;53.578;9.760;2022-07-29T02:20:05;12.40;99.90
56428;DHT22;42331;53.578;9.760;2022-07-29T02:22:38;12.40;99.90
56428;DHT22;42331;53.578;9.760;2022-07-29T02:25:10;12.40;99.90
56428;DHT22;42331;53.578;9.760;2022-07-29T02:27:41;12.50;99.90
56428;DHT22;42331;53.578;9.760;2022-07-29T02:30:13;12.50;99.90
56428;DHT22;42331;53.578;9.760;2022-07-29T02:32:45;12.50;99.90
56428;DHT22;42331;53.578;9.760;2022-07-29T02:35:17;12.50;99.90
56428;DHT22;42331;53.578;9.760;2022-07-29T02:37:48;12.50;99.90
56428;DHT22;42331;53.578;9.760;2022-07-29T02:40:42;12.50;99.90
56428;DHT22;42331;53.578;9.760;2022-07-29T02:43:13;12.60;99.90
56428;DHT22;42331;53.578;9.760;2022-07-29T02:45:47;12.60;99.90
56428;DHT22;42331;53.578;9.760;2022-07-29T02:48:25;12.60;99.90
56428;DHT22;42331;53.578;9.760;2022-07-29T02:51:05;12.70;99.90
56428;DHT22;42331;53.578;9.760;2022-07-29T02:53:37;12.70;99.90
56428;DHT22;42331;53.578;9.760;2022-07-29T02:56:13;12.70;99.90
56428;DHT22;42331;53.578;9.760;2022-07-29T02:58:56;12.80;99.90
56428;DHT22;42331;53.578;9.760;2022-07-29T03:01:31;12.70;99.90
56428;DHT22;42331;53.578;9.760;2022-07-29T03:04:04;12.70;99.90
56428;DHT22;42331;53.578;9.760;2022-07-29T03:06:36;12.70;99.90
56428;DHT22;42331;53.578;9.760;2022-07-29T03:09:10;12.70;99.90
56428;DHT22;42331;53.578;9.760;2022-07-29T03:11:42;12.70;99.90
56428;DHT22;42331;53.578;9.760;2022-07-29T03:14:16;12.70;99.90
56428;DHT22;42331;53.578;9.760;2022-07-29T03:16:48;12.80;99.90
56428;DHT22;42331;53.578;9.760;2022-07-29T03:19:19;12.70;99.90
56428;DHT22;42331;53.578;9.760;2022-07-29T03:21:51;12.70;99.90
56428;DHT22;42331;53.578;9.760;2022-07-29T03:24:31;12.70;99.90
56428;DHT22;42331;53.578;9.760;2022-07-29T03:27:03;12.70;99.90
56428;DHT22;42331;53.578;9.760;2022-07-29T03:29:34;12.70;99.90
56428;DHT22;42331;53.578;9.760;2022-07-29T03:32:05;12.70;99.90
56428;DHT22;42331;53.578;9.760;2022-07-29T03:34:37;12.80;99.90
56428;DHT22;42331;53.578;9.760;2022-07-29T03:37:08;12.80;99.90
56428;DHT22;42331;53.578;9.760;2022-07-29T03:39:40;12.80;99.90
56428;DHT22;42331;53.578;9.760;2022-07-29T03:42:13;12.80;99.90
56428;DHT22;42331;53.578;9.760;2022-07-29T03:44:47;12.80;99.90
56428;DHT22;42331;53.578;9.760;2022-07-29T03:47:23;12.80;99.90
56428;DHT22;42331;53.578;9.760;2022-07-29T03:50:00;12.80;99.90
56428;DHT22;42331;53.578;9.760;2022-07-29T03:52:32;12.90;99.90
56428;DHT22;42331;53.578;9.760;2022-07-29T03:55:04;12.90;99.90
56428;DHT22;42331;53.578;9.760;2022-07-29T03:57:36;13.00;99.90
56428;DHT22;42331;53.578;9.760;2022-07-29T04:00:09;13.00;99.90
56428;DHT22;42331;53.578;9.760;2022-07-29T04:02:40;13.00;99.90
56428;DHT22;42331;53.578;9.760;2022-07-29T04:05:13;13.00;99.90
56428;DHT22;42331;53.578;9.760;2022-07-29T04:07:45;13.00;99.90
56428;DHT22;42331;53.578;9.760;2022-07-29T04:10:16;13.00;99.90
56428;DHT22;42331;53.578;9.760;2022-07-29T04:12:47;13.00;99.90
56428;DHT22;42331;53.578;9.760;2022-07-29T04:15:19;13.00;99.90
56428;DHT22;42331;53.578;9.760;2022-07-29T04:17:50;13.10;99.90
56428;DHT22;42331;53.578;9.760;2022-07-29T04:20:21;13.10;99.90
56428;DHT22;42331;53.578;9.760;2022-07-29T04:22:51;13.10;99.90
56428;DHT22;42331;53.578;9.760;2022-07-29T04:25:22;13.10;99.90
56428;DHT22;42331;53.578;9.760;2022-07-29T04:27:53;13.20;99.90
56428;DHT22;42331;53.578;9.760;2022-07-29T04:30:37;13.30;99.90
56428;DHT22;42331;53.578;9.760;2022-07-29T04:33:08;13.30;99.90
56428;DHT22;42331;53.578;9.760;2022-07-29T04:35:39;13.30;99.90
56428;DHT22;42331;53.578;9.760;2022-07-29T04:38:09;13.40;99.90
56428;DHT22;42331;53.578;9.760;2022-07-29T04:40:40;13.40;99.90
56428;DHT22;42331;53.578;9.760;2022-07-29T04:43:11;13.50;99.90
56428;DHT22;42331;53.578;9.760;2022-07-29T04:45:41;13.50;99.90
56428;DHT22;42331;53.578;9.760;2022-07-29T04:48:12;13.50;99.90
56428;DHT22;42331;53.578;9.760;2022-07-29T04:50:43;13.60;99.90
56428;DHT22;42331;53.578;9.760;2022-07-29T04:53:14;13.70;99.90
56428;DHT22;42331;53.578;9.760;2022-07-29T04:55:45;13.70;99.90
56428;DHT22;42331;53.578;9.760;2022-07-29T04:58:16;13.80;99.90
56428;DHT22;42331;53.578;9.760;2022-07-29T05:00:47;13.80;99.90
56428;DHT22;42331;53.578;9.760;2022-07-29T05:03:18;13.90;99.90
56428;DHT22;42331;53.578;9.760;2022-07-29T05:05:49;13.80;99.90
56428;DHT22;42331;53.578;9.760;2022-07-29T05:08:29;13.90;99.90
56428;DHT22;42331;53.578;9.760;2022-07-29T05:10:59;13.90;99.90
56428;DHT22;42331;53.578;9.760;2022-07-29T05:13:30;14.00;99.90
56428;DHT22;42331;53.578;9.760;2022-07-29T05:16:01;14.00;99.90
56428;DHT22;42331;53.578;9.760;2022-07-29T05:18:32;14.10;99.90
56428;DHT22;42331;53.578;9.760;2022-07-29T05:21:03;14.10;99.90
56428;DHT22;42331;53.578;9.760;2022-07-29T05:23:34;14.20;99.90
56428;DHT22;42331;53.578;9.760;2022-07-29T05:26:05;14.20;99.90
56428;DHT22;42331;53.578;9.760;2022-07-29T05:28:35;14.20;99.90
56428;DHT22;42331;53.578;9.760;2022-07-29T05:31:06;14.30;99.90
56428;DHT22;42331;53.578;9.760;2022-07-29T05:33:37;14.30;99.90
56428;DHT22;42331;53.578;9.760;2022-07-29T05:36:08;14.30;99.90
56428;DHT22;42331;53.578;9.760;2022-07-29T05:38:38;14.40;99.90
56428;DHT22;42331;53.578;9.760;2022-07-29T05:41:09;14.40;99.90
56428;DHT22;42331;53.578;9.760;2022-07-29T06:08:51;15.20;99.90
56428;DHT22;42331;53.578;9.760;2022-07-29T06:11:22;15.30;99.90
56428;DHT22;42331;53.578;9.760;2022-07-29T06:17:46;15.40;99.90
56428;DHT22;42331;53.578;9.760;2022-07-29T06:20:33;15.60;99.90
56428;DHT22;42331;53.578;9.760;2022-07-29T06:24:06;15.80;99.90
56428;DHT22;42331;53.578;9.760;2022-07-29T06:26:40;16.00;99.90
56428;DHT22;42331;53.578;9.760;2022-07-29T06:32:15;16.10;99.90
56428;DHT22;42331;53.578;9.760;2022-07-29T06:34:46;16.20;99.90
56428;DHT22;42331;53.578;9.760;2022-07-29T06:37:17;16.20;99.90
56428;DHT22;42331;53.578;9.760;2022-07-29T06:39:48;16.30;99.90
56428;DHT22;42331;53.578;9.760;2022-07-29T06:42:42;16.30;99.90
56428;DHT22;42331;53.578;9.760;2022-07-29T06:45:13;16.30;99.90
56428;DHT22;42331;53.578;9.760;2022-07-29T06:47:44;16.40;99.90
56428;DHT22;42331;53.578;9.760;2022-07-29T06:54:05;16.50;99.90
56428;DHT22;42331;53.578;9.760;2022-07-29T06:56:45;16.60;99.90
56428;DHT22;42331;53.578;9.760;2022-07-29T06:59:24;16.60;99.90
56428;DHT22;42331;53.578;9.760;2022-07-29T07:02:13;16.70;99.90
56428;DHT22;42331;53.578;9.760;2022-07-29T07:04:53;16.80;99.90
56428;DHT22;42331;53.578;9.760;2022-07-29T07:07:29;16.90;99.90
56428;DHT22;42331;53.578;9.760;2022-07-29T07:10:03;17.00;99.90
56428;DHT22;42331;53.578;9.760;2022-07-29T07:16:04;17.40;99.90
56428;DHT22;42331;53.578;9.760;2022-07-29T07:18:35;17.70;99.90
56428;DHT22;42331;53.578;9.760;2022-07-29T07:21:06;17.90;99.90
56428;DHT22;42331;53.578;9.760;2022-07-29T07:23:37;18.10;99.90
56428;DHT22;42331;53.578;9.760;2022-07-29T07:26:07;18.10;99.90
56428;DHT22;42331;53.578;9.760;2022-07-29T07:28:38;18.30;99.90
56428;DHT22;42331;53.578;9.760;2022-07-29T07:31:12;18.30;99.90
56428;DHT22;42331;53.578;9.760;2022-07-29T07:33:42;18.30;99.90
56428;DHT22;42331;53.578;9.760;2022-07-29T07:36:13;18.30;99.90
56428;DHT22;42331;53.578;9.760;2022-07-29T07:38:44;18.40;99.90
56428;DHT22;42331;53.578;9.760;2022-07-29T07:41:15;18.40;99.90
56428;DHT22;42331;53.578;9.760;2022-07-29T07:43:45;18.60;99.90
56428;DHT22;42331;53.578;9.760;2022-07-29T07:46:16;18.60;99.90
56428;DHT22;42331;53.578;9.760;2022-07-29T07:48:47;18.60;99.90
56428;DHT22;42331;53.578;9.760;2022-07-29T07:51:18;18.60;99.90
56428;DHT22;42331;53.578;9.760;2022-07-29T07:53:49;18.60;99.90
56428;DHT22;42331;53.578;9.760;2022-07-29T07:56:20;18.70;99.90
56428;DHT22;42331;53.578;9.760;2022-07-29T07:58:54;18.70;99.90
56428;DHT22;42331;53.578;9.760;2022-07-29T08:01:24;18.70;99.90
56428;DHT22;42331;53.578;9.760;2022-07-29T08:04:30;18.80;99.90
56428;DHT22;42331;53.578;9.760;2022-07-29T08:10:44;19.20;99.90
56428;DHT22;42331;53.578;9.760;2022-07-29T08:13:41;19.40;99.90
56428;DHT22;42331;53.578;9.760;2022-07-29T08:16:56;19.70;99.90
56428;DHT22;42331;53.578;9.760;2022-07-29T08:19:56;19.90;99.90
56428;DHT22;42331;53.578;9.760;2022-07-29T08:26:14;20.00;99.90
56428;DHT22;42331;53.578;9.760;2022-07-29T08:28:48;20.20;99.90
56428;DHT22;42331;53.578;9.760;2022-07-29T08:32:02;20.30;99.90
56428;DHT22;42331;53.578;9.760;2022-07-29T08:34:36;20.30;99.90
56428;DHT22;42331;53.578;9.760;2022-07-29T08:37:52;20.50;99.90
56428;DHT22;42331;53.578;9.760;2022-07-29T08:41:18;20.70;99.90
56428;DHT22;42331;53.578;9.760;2022-07-29T08:43:49;20.90;99.90
56428;DHT22;42331;53.578;9.760;2022-07-29T08:46:21;21.00;99.90
56428;DHT22;42331;53.578;9.760;2022-07-29T08:48:52;21.20;99.90
56428;DHT22;42331;53.578;9.760;2022-07-29T08:51:23;21.40;99.90
56428;DHT22;42331;53.578;9.760;2022-07-29T08:53:56;21.40;99.90
56428;DHT22;42331;53.578;9.760;2022-07-29T08:56:27;21.60;99.90
56428;DHT22;42331;53.578;9.760;2022-07-29T08:58:58;21.60;99.90
56428;DHT22;42331;53.578;9.760;2022-07-29T09:01:33;21.60;99.90
56428;DHT22;42331;53.578;9.760;2022-07-29T09:04:07;21.60;99.90
56428;DHT22;42331;53.578;9.760;2022-07-29T09:06:45;21.60;99.90
56428;DHT22;42331;53.578;9.760;2022-07-29T09:09:17;21.70;99.90
56428;DHT22;42331;53.578;9.760;2022-07-29T09:11:48;21.60;99.90
56428;DHT22;42331;53.578;9.760;2022-07-29T09:14:19;21.40;99.90
56428;DHT22;42331;53.578;9.760;2022-07-29T09:16:53;21.40;99.90
56428;DHT22;42331;53.578;9.760;2022-07-29T09:19:46;21.30;99.90
56428;DHT22;42331;53.578;9.760;2022-07-29T09:23:07;21.20;99.90
56428;DHT22;42331;53.578;9.760;2022-07-29T09:25:49;21.20;99.90
56428;DHT22;42331;53.578;9.760;2022-07-29T09:28:19;21.20;99.90
56428;DHT22;42331;53.578;9.760;2022-07-29T09:30:58;21.10;99.90
56428;DHT22;42331;53.578;9.760;2022-07-29T09:33:32;21.10;99.90
56428;DHT22;42331;53.578;9.760;2022-07-29T09:36:15;21.20;99.90
56428;DHT22;42331;53.578;9.760;2022-07-29T09:39:02;21.10;99.90
56428;DHT22;42331;53.578;9.760;2022-07-29T09:41:49;21.10;99.90
56428;DHT22;42331;53.578;9.760;2022-07-29T09:44:21;21.10;99.90
56428;DHT22;42331;53.578;9.760;2022-07-29T09:47:03;21.10;99.90
56428;DHT22;42331;53.578;9.760;2022-07-29T09:49:57;21.00;99.90
56428;DHT22;42331;53.578;9.760;2022-07-29T09:56:42;20.90;99.90
56428;DHT22;42331;53.578;9.760;2022-07-29T10:03:18;20.90;99.90
56428;DHT22;42331;53.578;9.760;2022-07-29T10:06:07;20.80;99.90
56428;DHT22;42331;53.578;9.760;2022-07-29T10:09:07;20.70;99.90
56428;DHT22;42331;53.578;9.760;2022-07-29T10:18:44;20.80;99.90
56428;DHT22;42331;53.578;9.760;2022-07-29T10:21:25;20.90;99.90
56428;DHT22;42331;53.578;9.760;2022-07-29T10:24:40;20.90;99.90
56428;DHT22;42331;53.578;9.760;2022-07-29T10:27:29;20.90;99.90
56428;DHT22;42331;53.578;9.760;2022-07-29T10:30:40;21.10;99.90
56428;DHT22;42331;53.578;9.760;2022-07-29T10:40:29;21.50;99.90
56428;DHT22;42331;53.578;9.760;2022-07-29T10:43:30;21.50;99.90
56428;DHT22;42331;53.578;9.760;2022-07-29T10:46:06;21.60;99.90
56428;DHT22;42331;53.578;9.760;2022-07-29T10:52:03;22.00;99.90
56428;DHT22;42331;53.578;9.760;2022-07-29T11:05:22;23.20;99.90
56428;DHT22;42331;53.578;9.760;2022-07-29T11:10:43;23.50;99.90
56428;DHT22;42331;53.578;9.760;2022-07-29T11:16:15;23.60;99.90
56428;DHT22;42331;53.578;9.760;2022-07-29T11:21:36;24.00;99.90
56428;DHT22;42331;53.578;9.760;2022-07-29T11:24:17;24.20;99.90
56428;DHT22;42331;53.578;9.760;2022-07-29T11:27:08;24.30;99.90
56428;DHT22;42331;53.578;9.760;2022-07-29T11:29:56;24.60;99.90
56428;DHT22;42331;53.578;9.760;2022-07-29T11:32:36;24.60;99.90
56428;DHT22;42331;53.578;9.760;2022-07-29T11:37:47;24.40;99.90
56428;DHT22;42331;53.578;9.760;2022-07-29T11:40:34;24.20;99.90
56428;DHT22;42331;53.578;9.760;2022-07-29T11:43:05;24.00;99.90
56428;DHT22;42331;53.578;9.760;2022-07-29T11:45:46;24.10;99.90
56428;DHT22;42331;53.578;9.760;2022-07-29T11:48:18;24.20;99.90
56428;DHT22;42331;53.578;9.760;2022-07-29T11:50:49;24.40;99.90
56428;DHT22;42331;53.578;9.760;2022-07-29T11:53:20;24.40;99.90
56428;DHT22;42331;53.578;9.760;2022-07-29T11:55:55;24.50;99.90
56428;DHT22;42331;53.578;9.760;2022-07-29T11:58:25;24.60;99.90
56428;DHT22;42331;53.578;9.760;2022-07-29T12:00:57;24.60;99.90
56428;DHT22;42331;53.578;9.760;2022-07-29T12:03:31;24.50;99.90
56428;DHT22;42331;53.578;9.760;2022-07-29T12:06:15;24.60;99.90
56428;DHT22;42331;53.578;9.760;2022-07-29T12:08:46;24.40;99.90
56428;DHT22;42331;53.578;9.760;2022-07-29T12:11:18;24.30;99.90
56428;DHT22;42331;53.578;9.760;2022-07-29T12:13:51;24.40;99.90
56428;DHT22;42331;53.578;9.760;2022-07-29T12:16:22;24.40;99.90
56428;DHT22;42331;53.578;9.760;2022-07-29T12:19:06;24.40;99.90
56428;DHT22;42331;53.578;9.760;2022-07-29T12:21:48;24.40;99.90
56428;DHT22;42331;53.578;9.760;2022-07-29T12:24:20;24.30;99.90
56428;DHT22;42331;53.578;9.760;2022-07-29T12:26:58;24.30;99.90
56428;DHT22;42331;53.578;9.760;2022-07-29T12:29:29;24.20;99.90
56428;DHT22;42331;53.578;9.760;2022-07-29T12:32:00;24.20;99.90
56428;DHT22;42331;53.578;9.760;2022-07-29T12:34:31;24.20;99.90
56428;DHT22;42331;53.578;9.760;2022-07-29T12:37:02;24.10;99.90
56428;DHT22;42331;53.578;9.760;2022-07-29T12:39:33;24.00;99.90
56428;DHT22;42331;53.578;9.760;2022-07-29T12:42:14;24.20;99.90
56428;DHT22;42331;53.578;9.760;2022-07-29T12:44:49;24.20;99.90
56428;DHT22;42331;53.578;9.760;2022-07-29T12:47:20;24.20;99.90
56428;DHT22;42331;53.578;9.760;2022-07-29T12:50:10;24.30;99.90
56428;DHT22;42331;53.578;9.760;2022-07-29T12:52:42;24.50;99.90
56428;DHT22;42331;53.578;9.760;2022-07-29T12:55:13;24.50;99.90
56428;DHT22;42331;53.578;9.760;2022-07-29T12:57:49;24.70;99.90
56428;DHT22;42331;53.578;9.760;2022-07-29T13:00:24;24.70;99.90
56428;DHT22;42331;53.578;9.760;2022-07-29T13:02:57;24.70;99.90
56428;DHT22;42331;53.578;9.760;2022-07-29T13:05:43;24.60;99.90
56428;DHT22;42331;53.578;9.760;2022-07-29T13:08:15;24.70;99.90
56428;DHT22;42331;53.578;9.760;2022-07-29T13:10:46;24.70;99.90
56428;DHT22;42331;53.578;9.760;2022-07-29T13:13:17;24.50;99.90
56428;DHT22;42331;53.578;9.760;2022-07-29T13:16:05;24.40;99.90
56428;DHT22;42331;53.578;9.760;2022-07-29T13:18:36;24.60;99.90
56428;DHT22;42331;53.578;9.760;2022-07-29T13:21:12;24.70;99.90
56428;DHT22;42331;53.578;9.760;2022-07-29T13:23:43;24.80;99.90
56428;DHT22;42331;53.578;9.760;2022-07-29T13:26:14;24.70;99.90
56428;DHT22;42331;53.578;9.760;2022-07-29T13:28:50;24.60;99.90
56428;DHT22;42331;53.578;9.760;2022-07-29T13:31:21;24.50;99.90
56428;DHT22;42331;53.578;9.760;2022-07-29T13:33:52;24.60;99.90
56428;DHT22;42331;53.578;9.760;2022-07-29T13:36:23;24.60;99.90
56428;DHT22;42331;53.578;9.760;2022-07-29T13:38:53;24.70;99.90
56428;DHT22;42331;53.578;9.760;2022-07-29T13:41:24;24.80;99.90
56428;DHT22;42331;53.578;9.760;2022-07-29T13:43:56;25.00;99.90
56428;DHT22;42331;53.578;9.760;2022-07-29T13:46:26;24.90;99.90
56428;DHT22;42331;53.578;9.760;2022-07-29T13:48:57;24.70;99.90
56428;DHT22;42331;53.578;9.760;2022-07-29T13:51:28;24.60;99.90
56428;DHT22;42331;53.578;9.760;2022-07-29T13:53:59;24.60;99.90
56428;DHT22;42331;53.578;9.760;2022-07-29T13:56:29;24.60;99.90
56428;DHT22;42331;53.578;9.760;2022-07-29T13:59:00;24.40;99.90
56428;DHT22;42331;53.578;9.760;2022-07-29T14:01:31;24.50;99.90
56428;DHT22;42331;53.578;9.760;2022-07-29T14:04:02;24.50;99.90
56428;DHT22;42331;53.578;9.760;2022-07-29T14:06:33;24.50;99.90
56428;DHT22;42331;53.578;9.760;2022-07-29T14:09:04;24.30;99.90
56428;DHT22;42331;53.578;9.760;2022-07-29T14:11:39;24.20;99.90
56428;DHT22;42331;53.578;9.760;2022-07-29T14:14:10;24.10;99.90
56428;DHT22;42331;53.578;9.760;2022-07-29T14:16:41;24.10;99.90
56428;DHT22;42331;53.578;9.760;2022-07-29T14:19:11;24.00;99.90
56428;DHT22;42331;53.578;9.760;2022-07-29T14:21:42;24.10;99.90
56428;DHT22;42331;53.578;9.760;2022-07-29T14:24:13;24.20;99.90
56428;DHT22;42331;53.578;9.760;2022-07-29T14:26:44;24.20;99.90
56428;DHT22;42331;53.578;9.760;2022-07-29T14:29:15;24.30;99.90
56428;DHT22;42331;53.578;9.760;2022-07-29T14:31:46;24.30;99.90
56428;DHT22;42331;53.578;9.760;2022-07-29T14:34:16;24.40;99.90
56428;DHT22;42331;53.578;9.760;2022-07-29T14:36:47;24.30;99.90
56428;DHT22;42331;53.578;9.760;2022-07-29T14:39:17;24.20;99.90
56428;DHT22;42331;53.578;9.760;2022-07-29T14:41:49;24.30;99.90
56428;DHT22;42331;53.578;9.760;2022-07-29T14:44:21;24.20;99.90
56428;DHT22;42331;53.578;9.760;2022-07-29T14:46:52;24.40;99.90
56428;DHT22;42331;53.578;9.760;2022-07-29T14:49:22;24.30;99.90
56428;DHT22;42331;53.578;9.760;2022-07-29T14:51:53;24.40;99.90
56428;DHT22;42331;53.578;9.760;2022-07-29T14:54:24;24.30;99.90
56428;DHT22;42331;53.578;9.760;2022-07-29T14:56:55;24.20;99.90
56428;DHT22;42331;53.578;9.760;2022-07-29T14:59:27;24.30;99.90
56428;DHT22;42331;53.578;9.760;2022-07-29T15:01:58;24.40;99.90
56428;DHT22;42331;53.578;9.760;2022-07-29T15:04:29;24.40;99.90
56428;DHT22;42331;53.578;9.760;2022-07-29T15:06:59;24.20;99.90
56428;DHT22;42331;53.578;9.760;2022-07-29T15:09:30;24.00;99.90
56428;DHT22;42331;53.578;9.760;2022-07-29T15:12:01;23.80;99.90
56428;DHT22;42331;53.578;9.760;2022-07-29T15:14:33;23.70;99.90
56428;DHT22;42331;53.578;9.760;2022-07-29T15:17:04;23.60;99.90
56428;DHT22;42331;53.578;9.760;2022-07-29T15:19:35;23.50;99.90
56428;DHT22;42331;53.578;9.760;2022-07-29T15:22:05;23.50;99.90
56428;DHT22;42331;53.578;9.760;2022-07-29T15:24:36;23.50;99.90
56428;DHT22;42331;53.578;9.760;2022-07-29T15:27:07;23.50;99.90
56428;DHT22;42331;53.578;9.760;2022-07-29T15:29:44;23.50;99.90
56428;DHT22;42331;53.578;9.760;2022-07-29T15:32:15;23.50;99.90
56428;DHT22;42331;53.578;9.760;2022-07-29T15:34:45;23.50;99.90
56428;DHT22;42331;53.578;9.760;2022-07-29T15:37:16;23.50;99.90
56428;DHT22;42331;53.578;9.760;2022-07-29T15:39:49;23.40;99.90
56428;DHT22;42331;53.578;9.760;2022-07-29T15:42:20;23.30;99.90
56428;DHT22;42331;53.578;9.760;2022-07-29T15:44:53;23.20;99.90
56428;DHT22;42331;53.578;9.760;2022-07-29T15:47:26;23.10;99.90
56428;DHT22;42331;53.578;9.760;2022-07-29T15:49:57;23.10;99.90
56428;DHT22;42331;53.578;9.760;2022-07-29T15:52:28;22.90;99.90
56428;DHT22;42331;53.578;9.760;2022-07-29T15:54:59;22.90;99.90
56428;DHT22;42331;53.578;9.760;2022-07-29T15:57:29;22.90;99.90
56428;DHT22;42331;53.578;9.760;2022-07-29T16:00:03;22.80;99.90
56428;DHT22;42331;53.578;9.760;2022-07-29T16:02:34;22.80;99.90
56428;DHT22;42331;53.578;9.760;2022-07-29T16:05:05;22.80;99.90
56428;DHT22;42331;53.578;9.760;2022-07-29T16:07:36;22.70;99.90
56428;DHT22;42331;53.578;9.760;2022-07-29T16:10:07;22.60;99.90
56428;DHT22;42331;53.578;9.760;2022-07-29T16:12:38;22.70;99.90
56428;DHT22;42331;53.578;9.760;2022-07-29T16:15:09;22.60;99.90
56428;DHT22;42331;53.578;9.760;2022-07-29T16:17:40;22.60;99.90
56428;DHT22;42331;53.578;9.760;2022-07-29T16:20:11;22.60;99.90
56428;DHT22;42331;53.578;9.760;2022-07-29T16:22:41;22.60;99.90
56428;DHT22;42331;53.578;9.760;2022-07-29T16:25:12;22.50;99.90
56428;DHT22;42331;53.578;9.760;2022-07-29T16:27:43;22.50;99.90
56428;DHT22;42331;53.578;9.760;2022-07-29T16:30:14;22.50;99.90
56428;DHT22;42331;53.578;9.760;2022-07-29T16:32:44;22.40;99.90
56428;DHT22;42331;53.578;9.760;2022-07-29T16:35:15;22.40;99.90
56428;DHT22;42331;53.578;9.760;2022-07-29T16:37:45;22.30;99.90
56428;DHT22;42331;53.578;9.760;2022-07-29T16:40:16;22.30;99.90
56428;DHT22;42331;53.578;9.760;2022-07-29T16:42:50;22.30;99.90
56428;DHT22;42331;53.578;9.760;2022-07-29T16:45:21;22.30;99.90
56428;DHT22;42331;53.578;9.760;2022-07-29T16:48:22;22.30;99.90
56428;DHT22;42331;53.578;9.760;2022-07-29T16:50:56;22.30;99.90
56428;DHT22;42331;53.578;9.760;2022-07-29T16:53:32;22.30;99.90
56428;DHT22;42331;53.578;9.760;2022-07-29T16:56:04;22.30;99.90
56428;DHT22;42331;53.578;9.760;2022-07-29T16:58:34;22.20;99.90
56428;DHT22;42331;53.578;9.760;2022-07-29T17:01:05;22.20;99.90
56428;DHT22;42331;53.578;9.760;2022-07-29T17:03:36;22.10;99.90
56428;DHT22;42331;53.578;9.760;2022-07-29T17:06:35;22.10;99.90
56428;DHT22;42331;53.578;9.760;2022-07-29T17:09:08;22.10;99.90
56428;DHT22;42331;53.578;9.760;2022-07-29T17:11:40;22.10;99.90
56428;DHT22;42331;53.578;9.760;2022-07-29T17:14:20;22.10;99.90
56428;DHT22;42331;53.578;9.760;2022-07-29T17:16:56;22.00;99.90
56428;DHT22;42331;53.578;9.760;2022-07-29T17:19:29;22.00;99.90
56428;DHT22;42331;53.578;9.760;2022-07-29T17:22:02;22.00;99.90
56428;DHT22;42331;53.578;9.760;2022-07-29T17:24:32;21.90;99.90
56428;DHT22;42331;53.578;9.760;2022-07-29T17:27:04;21.90;99.90
56428;DHT22;42331;53.578;9.760;2022-07-29T17:29:44;21.90;99.90
56428;DHT22;42331;53.578;9.760;2022-07-29T17:36:08;21.90;99.90
56428;DHT22;42331;53.578;9.760;2022-07-29T17:38:56;21.90;99.90
56428;DHT22;42331;53.578;9.760;2022-07-29T17:41:27;21.80;99.90
56428;DHT22;42331;53.578;9.760;2022-07-29T17:43:57;21.80;99.90
56428;DHT22;42331;53.578;9.760;2022-07-29T17:46:28;21.80;99.90
56428;DHT22;42331;53.578;9.760;2022-07-29T17:48:59;21.80;99.90
56428;DHT22;42331;53.578;9.760;2022-07-29T17:54:58;21.70;99.90
56428;DHT22;42331;53.578;9.760;2022-07-29T17:57:28;21.70;99.90
